POGODA: Poland

Lotnisko: Katowice

METAR KOD: EPKT


METAR: EPKT 230400Z 05013G23KT 010V070 9999 SCT005 BKN008 07/06 Q1008


BLOK
Pogoda METAR
230400Z
Dzien: 23, Godzina: 04:00 UTC.
05013G23KT
Wiatr z kierunku 050, o predkosci 24 km/h w porywach do 43 km/h,
010V070
Wiatr zmienny pomiedzy 010 i 070
9999
Widzialnosc pozioma ponad 10 km.
SCT005
3/8 - 4/8 pokrycia nieba, chmurami o podstawie: 150 metrow
BKN008
5/8 - 7/8 pokrycia nieba, chmurami o podstawie: 240 metrow
07/06
Temperatura: powietrze 7°C, punkt rosy 6°C . Wilgotnosc wzgledna 86 %
Q1008
Cisnienie: 1008 hPa

Pogoda na innym lotnisku

Pogoda Gdansk-Rebiechowo WEATHER Poland  
Pogoda Katowice WEATHER Poland  
Pogoda Krakow WEATHER Poland  
Pogoda Poznan WEATHER Poland  
Pogoda Rzeszow-Jasionka WEATHER Poland  
Pogoda Szczecin WEATHER Poland  
Pogoda Warszawa-Okecie WEATHER Poland  
Pogoda Wroclaw Ii WEATHER Poland  

Pogoda w inny kraju

Strona startowa

(C) by GREGOR 2007
Ogłoszenia Towarzyskie